Time;durP1;ratioP1;P1;durP2;ratioP2;P2;SDS_P1;SDS_P2;PMS_P1;PMS_P2;Temp;Humidity;BMP_temperature;BMP_pressure;BME280_temperature;BME280_humidity;BME280_pressure;Samples;Min_cycle;Max_cycle;Signal;HPM_P1;HPM_P2
2022/01/12 00:04:10;;;;;;;;;;;;;;;;;;;;;
2022/01/12 00:37:46;;;;;;;213.27;59.53;;;;;;;-7.02;100.00;101957.94;9820413;30;20056;-94
2022/01/12 00:43:15;;;;;;;220.60;56.42;;;;;;;-2.14;100.00;102903.59;9792377;30;20036;-90
2022/01/12 00:48:51;;;;;;;;;;;;;;;;;;;;;
2022/01/12 00:54:08;;;;;;;245.50;61.97;;;;;;;-4.63;100.00;102507.03;9808707;30;20043;-94
2022/01/12 01:05:59;;;;;;;229.10;63.17;;;;;;;-5.59;100.00;102247.47;9841241;30;20036;-95
2022/01/12 01:11:23;;;;;;;231.63;60.80;;;;;;;-2.07;100.00;102839.19;9809308;30;20052;-93
2022/01/12 01:17:16;;;;;;;248.80;62.77;;;;;;;-4.78;100.00;102319.13;9804784;30;20036;-89
2022/01/12 01:28:15;;;;;;;;;;;;;;;;;;;;;
2022/01/12 01:33:42;;;;;;;256.43;65.40;;;;;;;0.41;100.00;103282.31;9765692;30;20056;-89
2022/01/12 01:39:04;;;;;;;;;;;;;;;;;;;;;
2022/01/12 01:54:47;;;;;;;289.13;65.53;;;;;;;-4.46;100.00;102647.31;9814723;30;20051;-94
2022/01/12 01:59:50;;;;;;;292.33;68.93;;;;;;;-2.00;100.00;102924.09;9811746;30;20051;-93
2022/01/12 02:05:36;;;;;;;398.45;76.78;;;;;;;0.11;100.00;103405.78;9813266;30;20502;-93
2022/01/12 02:10:37;;;;;;;373.73;70.70;;;;;;;-2.34;100.00;103069.69;9811978;30;20043;-93
2022/01/12 02:15:40;;;;;;;360.30;71.03;;;;;;;-4.70;100.00;102630.28;9810783;30;20044;-93
2022/01/12 02:53:59;;;;;;;289.53;68.83;;;;;;;-2.17;100.00;102954.22;9806045;30;20055;-94
2022/01/12 02:59:02;;;;;;;303.08;67.68;;;;;;;-3.32;100.00;102759.06;9808550;30;20578;-94
2022/01/12 03:04:45;;;;;;;;;;;;;;;;;;;;;
2022/01/12 03:10:10;;;;;;;310.57;68.83;;;;;;;-2.19;100.00;102872.53;9796866;30;20040;-93
2022/01/12 03:15:20;;;;;;;402.83;75.63;;;;;;;2.11;100.00;103916.16;9812177;30;20044;-94
2022/01/12 03:20:52;;;;;;;;;;;;;;;;;;;;;
2022/01/12 03:26:28;;;;;;;400.53;74.00;;;;;;;-3.56;100.00;102832.63;9796576;30;20071;-94
2022/01/12 03:31:59;;;;;;;446.50;78.87;;;;;;;-1.23;100.00;103161.16;9826688;30;20056;-94
2022/01/12 03:37:39;;;;;;;329.85;65.97;;;;;;;-3.80;100.00;102679.22;9811710;30;20076;-94
2022/01/12 03:42:55;;;;;;;;;;;;;;;;;;;;;
2022/01/12 03:48:01;;;;;;;413.47;72.13;;;;;;;0.42;100.00;103406.00;9809535;30;20070;-94
2022/01/12 03:59:01;;;;;;;531.43;82.53;;;;;;;-2.34;100.00;102999.56;9801645;30;20055;-94
2022/01/12 04:04:08;;;;;;;559.43;83.30;;;;;;;-3.55;100.00;103017.44;9793487;30;20024;-93
2022/01/12 04:09:20;;;;;;;271.30;60.87;;;;;;;-3.58;100.00;102689.19;9801920;30;20036;-93
2022/01/12 04:14:43;;;;;;;453.50;71.38;;;;;;;-1.04;100.00;103330.88;9799614;30;20055;-89
2022/01/12 04:19:53;;;;;;;551.60;71.45;;;;;;;1.76;100.00;103767.72;9793091;30;20039;-89
2022/01/12 04:25:05;;;;;;;549.17;70.47;;;;;;;-0.24;100.00;103539.38;9793131;30;20047;-89
2022/01/12 04:30:29;;;;;;;316.73;53.80;;;;;;;-2.90;100.00;103167.28;9820226;30;20495;-88
2022/01/12 04:35:58;;;;;;;597.00;82.97;;;;;;;-3.99;100.00;102720.09;9801120;30;20044;-93
2022/01/12 04:41:01;;;;;;;656.10;84.80;;;;;;;-5.44;100.00;102484.31;9807299;30;20071;-93
2022/01/12 04:51:18;;;;;;;436.60;62.87;;;;;;;-1.15;100.00;103349.78;9809139;30;20410;-94
2022/01/12 04:56:50;;;;;;;731.80;84.07;;;;;;;-4.59;100.00;102669.78;9796239;30;20048;-89
2022/01/12 05:08:11;;;;;;;489.17;67.63;;;;;;;-3.43;100.00;102923.28;9796939;30;20055;-89
2022/01/12 05:13:28;;;;;;;470.00;66.93;;;;;;;-2.46;100.00;103031.03;9797929;30;20078;-94
2022/01/12 05:18:50;;;;;;;461.47;61.87;;;;;;;1.19;100.00;103928.78;9796218;30;20039;-88
2022/01/12 05:24:05;;;;;;;;;;;;;;;;;;;;;
2022/01/12 05:29:13;;;;;;;409.73;58.92;;;;;;;-3.73;100.00;102997.22;9799697;30;20146;-89
2022/01/12 05:34:37;;;;;;;;;;;;;;;;;;;;;
2022/01/12 05:40:05;;;;;;;401.33;59.00;;;;;;;-0.56;100.00;103492.25;9781688;30;20047;-88
2022/01/12 05:45:18;;;;;;;320.75;54.72;;;;;;;-5.17;100.00;102777.69;9775109;30;20036;-90
2022/01/12 05:50:51;;;;;;;430.83;61.93;;;;;;;-4.90;100.00;102865.41;9775328;30;20084;-89
2022/01/12 05:56:24;;;;;;;249.93;48.28;;;;;;;-2.88;100.00;103080.91;9761497;30;20058;-94
2022/01/12 06:02:01;;;;;;;428.67;63.17;;;;;;;-5.16;100.00;102660.41;9776658;30;20041;-94
2022/01/12 06:07:11;;;;;;;240.30;49.53;;;;;;;-7.02;100.00;102584.38;9794076;30;20119;-94
2022/01/12 06:12:53;;;;;;;200.73;41.67;;;;;;;-4.91;100.00;102767.84;9777127;30;20049;-94
2022/01/12 06:18:24;;;;;;;;;;;;;;;;;;;;;
2022/01/12 06:24:00;;;;;;;367.33;52.13;;;;;;;-5.37;100.00;102762.09;9721954;30;20056;-90
2022/01/12 06:29:37;;;;;;;;;;;;;;;;;;;;;
2022/01/12 06:34:47;;;;;;;287.70;47.07;;;;;;;-2.07;100.00;103335.81;9774366;30;20060;-89
2022/01/12 06:40:37;;;;;;;294.90;45.90;;;;;;;-0.89;100.00;103510.03;9798294;30;20044;-90
2022/01/12 06:46:30;;;;;;;240.93;43.60;;;;;;;-2.13;100.00;103311.97;9799781;30;20059;-94
2022/01/12 06:51:59;;;;;;;431.77;53.33;;;;;;;-6.86;100.00;102686.88;9805022;30;20498;-94
2022/01/12 06:57:06;;;;;;;326.67;49.00;;;;;;;-1.09;100.00;103674.59;9811749;30;20040;-89
2022/01/12 07:02:36;;;;;;;;;;;;;;;;;;;;;
2022/01/12 07:07:55;;;;;;;;;;;;;;;;;;;;;
2022/01/12 07:13:18;;;;;;;347.23;51.27;;;;;;;-4.62;100.00;103110.84;9821459;30;20403;-89
2022/01/12 07:18:39;;;;;;;400.00;55.55;;;;;;;-6.12;100.00;102814.38;9812126;30;20036;-93
2022/01/12 07:23:54;;;;;;;414.57;55.60;;;;;;;-1.16;100.00;103511.09;9791687;30;20028;-94
2022/01/12 07:29:35;;;;;;;196.63;41.70;;;;;;;-3.08;100.00;103385.06;9801968;30;20068;-95
2022/01/12 07:35:19;;;;;;;162.03;39.73;;;;;;;-5.80;100.00;102987.63;9835444;30;20051;-89
2022/01/12 07:41:03;;;;;;;;;;;;;;;;;;;;;
2022/01/12 07:46:27;;;;;;;;;;;;;;;;;;;;;
2022/01/12 07:52:04;;;;;;;363.75;49.92;;;;;;;-1.22;100.00;103495.31;9702901;30;20455;-89
2022/01/12 07:57:17;;;;;;;329.30;45.17;;;;;;;-5.17;100.00;102935.28;9712183;30;20052;-89
2022/01/12 08:02:35;;;;;;;;;;;;;;;;;;;;;
2022/01/12 08:07:41;;;;;;;376.47;54.27;;;;;;;-0.25;100.00;103746.16;9685111;30;20144;-94
2022/01/12 08:13:04;;;;;;;303.80;44.63;;;;;;;-4.10;100.00;103209.63;9795613;30;20483;-87
2022/01/12 08:18:07;;;;;;;203.13;40.42;;;;;;;-4.07;100.00;103072.22;9792951;30;20119;-93
2022/01/12 08:23:21;;;;;;;263.47;43.33;;;;;;;-3.15;100.00;103388.25;9792153;30;20114;-92
2022/01/12 08:28:21;;;;;;;381.47;48.43;;;;;;;-6.33;100.00;102626.28;9794457;30;20131;-92
2022/01/12 08:33:22;;;;;;;379.20;50.10;;;;;;;-4.41;100.00;103020.69;9781933;30;20491;-92
2022/01/12 08:38:28;;;;;;;224.43;39.03;;;;;;;-6.14;100.00;102866.38;9770745;30;20119;-94
2022/01/12 08:43:45;;;;;;;;;;;;;;;;;;;;;
2022/01/12 08:48:51;;;;;;;383.50;50.17;;;;;;;-3.56;100.00;103411.53;9783887;30;20139;-88
2022/01/12 08:54:44;;;;;;;;;;;;;;;;;;;;;
2022/01/12 09:13:40;;;;;;;;;;;;;;;;;;;;;
2022/01/12 09:50:58;;;;;;;;;;;;;;;;;;;;;
2022/01/12 09:55:54;;;;;;;435.67;56.65;;;;;;;-5.29;100.00;103025.56;9607380;30;20051;-89
2022/01/12 10:01:17;;;;;;;;;;;;;;;;;;;;;
2022/01/12 10:06:50;;;;;;;;;;;;;;;;;;;;;
2022/01/12 10:18:44;;;;;;;365.17;41.97;;;;;;;-2.07;100.00;103325.91;9842001;30;20036;-88
2022/01/12 10:24:10;;;;;;;353.27;44.20;;;;;;;0.53;100.00;103703.31;9786593;30;20040;-89
2022/01/12 10:29:52;;;;;;;399.90;41.30;;;;;;;-0.73;100.00;103561.16;9811817;30;20506;-89
2022/01/12 10:34:57;;;;;;;;;;;;;;;2.27;100.00;103876.84;9811799;30;20077;-93
2022/01/12 10:39:58;;;;;;;231.73;33.33;;;;;;;-5.02;100.00;102767.75;9809966;30;19957;-88
2022/01/12 10:45:03;;;;;;;207.23;33.43;;;;;;;0.16;100.00;103511.91;9809921;30;20040;-92
2022/01/12 10:50:17;;;;;;;279.60;38.10;;;;;;;-0.36;100.00;103474.50;9797320;30;20119;-92
2022/01/12 10:55:40;;;;;;;277.25;34.80;;;;;;;-2.97;100.00;102989.97;9797991;30;20044;-88
2022/01/12 11:00:59;;;;;;;394.92;43.03;;;;;;;2.04;100.00;103844.25;9794862;30;20040;-89
2022/01/12 11:06:04;;;;;;;224.03;35.67;;;;;;;-2.89;100.00;103019.91;9793861;30;20052;-89
2022/01/12 11:11:11;;;;;;;280.67;40.25;;;;;;;-0.95;100.00;103319.38;9808668;30;20044;-93
2022/01/12 11:16:27;;;;;;;313.98;38.28;;;;;;;-3.28;100.00;102954.50;9808650;30;20048;-90
2022/01/12 11:22:16;;;;;;;;;;;;;;;;;;;;;
2022/01/12 11:27:40;;;;;;;203.70;33.22;;;;;;;-0.93;100.00;103240.81;9813875;30;20048;-93
2022/01/12 11:32:53;;;;;;;168.68;30.13;;;;;;;-2.06;100.00;103100.03;9793846;30;20099;-93
2022/01/12 11:37:59;;;;;;;246.27;40.47;;;;;;;-2.99;100.00;103051.19;9816505;30;20052;-93
2022/01/12 11:43:05;;;;;;;173.90;33.37;;;;;;;-2.98;100.00;102869.66;9814971;30;20406;-90
2022/01/12 11:48:22;;;;;;;118.10;24.73;;;;;;;-0.79;100.00;103296.53;9815371;30;20040;-93
2022/01/12 11:54:01;;;;;;;;;;;;;;;;;;;;;
2022/01/12 11:59:36;;;;;;;;;;;;;;;;;;;;;
2022/01/12 12:05:11;;;;;;;145.65;27.20;;;;;;;3.38;100.00;103983.66;9820228;30;20113;-89
2022/01/12 12:10:19;;;;;;;100.65;20.67;;;;;;;-0.53;100.00;103322.41;9818913;30;20135;-93
2022/01/12 12:15:31;;;;;;;107.30;20.85;;;;;;;0.01;100.00;103377.69;9821886;30;20135;-93
2022/01/12 12:21:25;;;;;;;108.57;24.27;;;;;;;1.56;100.00;103556.66;9801733;30;20063;-90
2022/01/12 12:27:20;;;;;;;;;;;;;;;;;;;;;
2022/01/12 12:33:07;;;;;;;112.47;24.83;;;;;;;-0.16;100.00;103414.25;9819462;30;20059;-90
2022/01/12 12:39:08;;;;;;;;;;;;;;;;;;;;;
2022/01/12 12:44:55;;;;;;;;;;;;;;;;;;;;;
2022/01/12 12:50:29;;;;;;;;;;;;;;;;;;;;;
2022/01/12 13:02:43;;;;;;;;;;;;;;;;;;;;;
2022/01/12 13:08:47;;;;;;;;;;;;;;;;;;;;;
2022/01/12 13:14:18;;;;;;;90.70;25.00;;;;;;;0.06;100.00;103221.09;9756883;30;20407;-90
2022/01/12 13:25:40;;;;;;;68.70;21.42;;;;;;;2.87;100.00;103853.69;9668200;30;20087;-86
2022/01/12 13:31:12;;;;;;;71.70;24.65;;;;;;;0.77;100.00;103537.84;9781269;30;20033;-87
2022/01/12 13:37:12;;;;;;;;;;;;;;;;;;;;;
2022/01/12 13:55:41;;;;;;;;;;;;;;;;;;;;;
2022/01/12 14:01:22;;;;;;;51.22;14.30;;;;;;;4.30;100.00;104023.91;9529402;31;20478;-95
2022/01/12 14:13:46;;;;;;;;;;;;;;;;;;;;;
2022/01/12 14:19:08;;;;;;;40.20;14.13;;;;;;;4.25;100.00;103972.47;9640860;30;20043;-87
2022/01/12 14:24:49;;;;;;;;;;;;;;;;;;;;;
2022/01/12 14:30:19;;;;;;;46.90;12.57;;;;;;;2.21;100.00;103563.78;9818774;30;20044;-90
2022/01/12 14:35:42;;;;;;;39.63;11.80;;;;;;;0.47;100.00;103276.38;9787745;30;20052;-88
2022/01/12 14:40:45;;;;;;;43.42;15.23;;;;;;;4.24;100.00;104036.19;9783484;30;20045;-89
2022/01/12 14:45:46;;;;;;;45.17;14.88;;;;;;;-1.75;100.00;102906.78;9803787;30;20051;-87
2022/01/12 14:50:52;;;;;;;45.22;14.30;;;;;;;2.50;100.00;103688.19;9806187;30;20032;-93
2022/01/12 14:55:54;;;;;;;45.78;17.90;;;;;;;0.92;100.00;103571.84;9812209;30;20048;-92
2022/01/12 15:01:01;;;;;;;44.42;15.50;;;;;;;-1.64;100.00;103038.25;9804785;30;20044;-92
2022/01/12 15:25:30;;;;;;;34.03;12.50;;;;;;;0.18;100.00;103618.31;9692655;30;20635;-90
2022/01/12 15:31:16;;;;;;;34.38;12.98;;;;;;;1.69;100.00;103693.13;9688428;30;20073;-93
2022/01/12 15:43:47;;;;;;;;;;;;;;;;;;;;;
2022/01/12 15:49:08;;;;;;;34.73;14.43;;;;;;;-0.82;100.00;103386.91;9765371;30;20090;-87
2022/01/12 15:54:14;;;;;;;42.10;15.13;;;;;;;-4.86;100.00;102719.16;9780900;30;20063;-94
2022/01/12 15:59:17;;;;;;;46.20;16.40;;;;;;;-1.89;100.00;103221.06;9759377;30;20128;-92
2022/01/12 16:04:56;;;;;;;48.00;16.60;;;;;;;2.85;100.00;103841.19;9785166;30;20565;-93
2022/01/12 16:10:19;;;;;;;51.77;16.57;;;;;;;-3.34;100.00;102893.00;9674224;30;20405;-88
2022/01/12 16:15:40;;;;;;;42.87;16.87;;;;;;;-0.74;100.00;103349.31;9700406;30;20073;-90
2022/01/12 16:27:17;;;;;;;51.47;17.77;;;;;;;-1.50;100.00;103127.19;9640857;30;20046;-91
2022/01/12 16:32:40;;;;;;;49.60;18.17;;;;;;;-3.08;100.00;102854.19;9619743;30;20447;-93
2022/01/12 17:03:25;;;;;;;67.97;20.13;;;;;;;0.79;100.00;103612.66;9530910;30;20036;-87
2022/01/12 17:08:26;;;;;;;73.80;22.80;;;;;;;-0.44;100.00;103408.28;9733967;30;20109;-91
2022/01/12 17:13:27;;;;;;;86.35;22.70;;;;;;;-1.26;100.00;103264.06;9803453;30;20044;-92
2022/01/12 17:18:54;;;;;;;81.07;24.95;;;;;;;3.05;100.00;103888.50;9806557;30;20032;-87
2022/01/12 17:23:57;;;;;;;211.17;33.80;;;;;;;0.88;100.00;103583.91;9836865;30;20051;-89
2022/01/12 17:29:24;;;;;;;;;;;;;;;;;;;;;
2022/01/12 17:34:53;;;;;;;;;;;;;;;;;;;;;
2022/01/12 17:46:47;;;;;;;;;;;;;;;;;;;;;
2022/01/12 17:58:33;;;;;;;116.93;29.63;;;;;;;-3.71;100.00;102898.38;9840499;30;20040;-93
2022/01/12 18:03:45;;;;;;;110.83;25.03;;;;;;;-1.58;100.00;103190.91;9809363;30;20024;-90
2022/01/12 18:22:33;;;;;;;;;;;;;;;;;;;;;
2022/01/12 18:40:56;;;;;;;;;;;;;;;;;;;;;
2022/01/12 18:46:48;;;;;;;;;;;;;;;;;;;;;
2022/01/12 18:52:40;;;;;;;;;;;;;;;;;;;;;
2022/01/12 18:58:29;;;;;;;157.77;40.28;;;;;;;-3.59;100.00;102805.94;9691132;30;20074;-94
2022/01/12 19:04:28;;;;;;;;;;;;;;;;;;;;;
2022/01/12 19:16:26;;;;;;;;;;;;;;;;;;;;;
2022/01/12 19:21:55;;;;;;;;;;;;;;;;;;;;;
2022/01/12 19:27:47;;;;;;;;;;;;;;;;;;;;;
2022/01/12 19:33:50;;;;;;;192.20;45.33;;;;;;;3.74;100.00;103921.56;9575994;30;20058;-91
2022/01/12 19:45:09;;;;;;;186.73;43.47;;;;;;;0.86;100.00;103479.25;9874057;30;20047;-92
2022/01/12 19:51:05;;;;;;;;;;;;;;;;;;;;;
2022/01/12 20:03:19;;;;;;;174.27;43.08;;;;;;;3.78;100.00;103895.75;9874919;30;20036;-90
2022/01/12 20:09:39;;;;;;;;;;;;;;;;;;;;;
2022/01/12 20:15:40;;;;;;;;;;;;;;;;;;;;;
2022/01/12 20:27:52;;;;;;;;;;;;;;;;;;;;;
2022/01/12 20:40:00;;;;;;;158.55;39.25;;;;;;;0.02;100.00;103400.22;9759179;30;20053;-89
2022/01/12 20:45:22;;;;;;;169.43;43.70;;;;;;;-0.39;100.00;103337.56;9695948;30;20420;-91
2022/01/12 20:50:43;;;;;;;;;;;;;;;;;;;;;
2022/01/12 21:09:45;;;;;;;;;;;;;;;;;;;;;
2022/01/12 21:15:33;;;;;;;;;;;;;;;;;;;;;
2022/01/12 21:47:08;;;;;;;140.30;35.17;;;;;;;-3.50;100.00;102929.09;9388690;31;20053;-92
2022/01/12 21:59:07;;;;;;;129.18;35.00;;;;;;;-2.65;100.00;103050.44;9482329;31;20036;-93
2022/01/12 22:04:08;;;;;;;126.60;35.08;;;;;;;-0.12;100.00;103320.09;9676396;30;20044;-90
2022/01/12 22:09:09;;;;;;;119.75;34.60;;;;;;;-0.13;100.00;103533.13;9773962;30;20055;-91
2022/01/12 22:14:09;;;;;;;146.90;38.13;;;;;;;-1.46;100.00;103077.34;9789377;30;20036;-91
2022/01/12 22:19:10;;;;;;;137.50;35.75;;;;;;;-2.65;100.00;102958.75;9788076;30;20047;-91
2022/01/12 22:24:10;;;;;;;111.78;33.38;;;;;;;1.37;100.00;103665.94;9788300;30;20040;-90
2022/01/12 22:29:13;;;;;;;115.70;34.60;;;;;;;2.54;100.00;103708.69;9788649;30;20047;-90
2022/01/12 22:34:14;;;;;;;133.55;36.63;;;;;;;-3.41;100.00;102883.63;9787168;30;20454;-89
2022/01/12 22:39:19;;;;;;;108.72;32.10;;;;;;;-0.95;100.00;103376.16;9795572;30;20052;-91
2022/01/12 22:44:23;;;;;;;129.20;34.58;;;;;;;-1.81;100.00;103045.00;9795412;30;20130;-92
2022/01/12 22:49:29;;;;;;;119.25;36.53;;;;;;;1.21;100.00;103715.13;9794578;30;20041;-89
2022/01/12 22:54:29;;;;;;;126.90;33.87;;;;;;;-0.48;100.00;103340.97;9793109;30;20047;-90
2022/01/12 22:59:33;;;;;;;116.93;35.90;;;;;;;3.96;100.00;104114.06;9808532;30;20040;-90
2022/01/12 23:04:39;;;;;;;118.63;32.78;;;;;;;-0.90;100.00;103218.97;9809239;30;20043;-92
2022/01/12 23:09:43;;;;;;;118.10;37.72;;;;;;;-1.86;100.00;103112.84;9823250;30;20514;-92
2022/01/12 23:14:52;;;;;;;141.02;38.70;;;;;;;1.12;100.00;103696.91;9809674;30;20082;-91
2022/01/12 23:19:53;;;;;;;134.00;38.03;;;;;;;-0.19;100.00;103291.78;9822933;30;20115;-92
2022/01/12 23:24:56;;;;;;;113.43;36.47;;;;;;;-2.05;100.00;103070.22;9807976;30;20035;-91
2022/01/12 23:29:59;;;;;;;126.10;36.35;;;;;;;1.25;100.00;103558.34;9823464;30;20040;-92
2022/01/12 23:56:48;;;;;;;107.85;34.50;;;;;;;-3.31;100.00;102723.06;9822187;30;20047;-92
